sensor_id;sensor_type;location;lat;lon;timestamp;pressure;altitude;pressure_sealevel;temperature;humidity
4858;BME280;58975;51.978;8.472;2023-08-06T00:03:33;99570.03;;;13.49;100.00
4858;BME280;58975;51.978;8.472;2023-08-06T00:08:30;99577.56;;;13.45;100.00
4858;BME280;58975;51.978;8.472;2023-08-06T00:13:26;99567.91;;;13.52;100.00
4858;BME280;58975;51.978;8.472;2023-08-06T00:18:23;99574.91;;;13.53;100.00
4858;BME280;58975;51.978;8.472;2023-08-06T00:23:19;99573.94;;;13.54;100.00
4858;BME280;58975;51.978;8.472;2023-08-06T00:28:17;99557.72;;;13.56;100.00
4858;BME280;58975;51.978;8.472;2023-08-06T00:33:14;99557.72;;;13.56;100.00
4858;BME280;58975;51.978;8.472;2023-08-06T00:38:10;99549.84;;;13.54;100.00
4858;BME280;58975;51.978;8.472;2023-08-06T00:43:07;99534.31;;;13.58;100.00
4858;BME280;58975;51.978;8.472;2023-08-06T00:48:05;99536.84;;;13.59;100.00
4858;BME280;58975;51.978;8.472;2023-08-06T00:53:02;99516.41;;;13.58;100.00
4858;BME280;58975;51.978;8.472;2023-08-06T00:57:59;99511.91;;;13.59;100.00
4858;BME280;58975;51.978;8.472;2023-08-06T01:02:55;99501.38;;;13.65;100.00
4858;BME280;58975;51.978;8.472;2023-08-06T01:08:12;99480.97;;;13.64;100.00
4858;BME280;58975;51.978;8.472;2023-08-06T01:13:21;99484.00;;;13.69;100.00
4858;BME280;58975;51.978;8.472;2023-08-06T01:18:19;99473.63;;;13.66;100.00
4858;BME280;58975;51.978;8.472;2023-08-06T01:23:16;99468.28;;;13.66;100.00
4858;BME280;58975;51.978;8.472;2023-08-06T01:28:30;99452.56;;;13.63;100.00
4858;BME280;58975;51.978;8.472;2023-08-06T01:33:30;99454.22;;;13.64;100.00
4858;BME280;58975;51.978;8.472;2023-08-06T01:38:28;99446.38;;;13.63;100.00
4858;BME280;58975;51.978;8.472;2023-08-06T01:43:25;99439.84;;;13.65;100.00
4858;BME280;58975;51.978;8.472;2023-08-06T01:48:21;99434.16;;;13.60;100.00
4858;BME280;58975;51.978;8.472;2023-08-06T01:53:18;99420.97;;;13.59;100.00
4858;BME280;58975;51.978;8.472;2023-08-06T01:58:14;99422.13;;;13.56;100.00
4858;BME280;58975;51.978;8.472;2023-08-06T02:03:10;99416.59;;;13.58;100.00
4858;BME280;58975;51.978;8.472;2023-08-06T02:08:07;99413.44;;;13.54;100.00
4858;BME280;58975;51.978;8.472;2023-08-06T02:13:03;99399.53;;;13.43;100.00
4858;BME280;58975;51.978;8.472;2023-08-06T02:18:00;99400.72;;;13.32;100.00
4858;BME280;58975;51.978;8.472;2023-08-06T02:22:56;99406.03;;;13.24;100.00
4858;BME280;58975;51.978;8.472;2023-08-06T02:27:53;99405.69;;;13.19;100.00
4858;BME280;58975;51.978;8.472;2023-08-06T02:32:49;99399.50;;;13.18;100.00
4858;BME280;58975;51.978;8.472;2023-08-06T02:37:45;99398.03;;;13.24;100.00
4858;BME280;58975;51.978;8.472;2023-08-06T02:42:42;99392.00;;;13.30;100.00
4858;BME280;58975;51.978;8.472;2023-08-06T02:47:38;99389.84;;;13.34;100.00
4858;BME280;58975;51.978;8.472;2023-08-06T02:52:35;99382.31;;;13.37;100.00
4858;BME280;58975;51.978;8.472;2023-08-06T02:57:31;99375.31;;;13.36;100.00
4858;BME280;58975;51.978;8.472;2023-08-06T03:02:28;99380.31;;;13.39;100.00
4858;BME280;58975;51.978;8.472;2023-08-06T03:07:24;99365.28;;;13.38;100.00
4858;BME280;58975;51.978;8.472;2023-08-06T03:12:21;99356.41;;;13.38;100.00
4858;BME280;58975;51.978;8.472;2023-08-06T03:17:17;99348.88;;;13.33;100.00
4858;BME280;58975;51.978;8.472;2023-08-06T03:22:13;99341.88;;;13.32;100.00
4858;BME280;58975;51.978;8.472;2023-08-06T03:27:10;99333.84;;;13.24;100.00
4858;BME280;58975;51.978;8.472;2023-08-06T03:32:07;99332.69;;;13.26;100.00
4858;BME280;58975;51.978;8.472;2023-08-06T03:37:03;99325.50;;;13.19;100.00
4858;BME280;58975;51.978;8.472;2023-08-06T03:42:00;99330.81;;;13.11;100.00
4858;BME280;58975;51.978;8.472;2023-08-06T03:46:56;99328.78;;;13.05;100.00
4858;BME280;58975;51.978;8.472;2023-08-06T03:51:53;99325.09;;;12.98;100.00
4858;BME280;58975;51.978;8.472;2023-08-06T03:56:50;99321.41;;;12.91;100.00
4858;BME280;58975;51.978;8.472;2023-08-06T04:01:46;99312.72;;;12.89;100.00
4858;BME280;58975;51.978;8.472;2023-08-06T04:06:43;99300.69;;;12.85;100.00
4858;BME280;58975;51.978;8.472;2023-08-06T04:11:39;99297.16;;;12.76;100.00
4858;BME280;58975;51.978;8.472;2023-08-06T04:16:35;99303.69;;;12.73;100.00
4858;BME280;58975;51.978;8.472;2023-08-06T04:21:32;99289.31;;;12.74;100.00
4858;BME280;58975;51.978;8.472;2023-08-06T04:26:28;99310.06;;;12.89;100.00
4858;BME280;58975;51.978;8.472;2023-08-06T04:31:25;99313.09;;;12.94;100.00
4858;BME280;58975;51.978;8.472;2023-08-06T04:36:21;99316.41;;;13.04;100.00
4858;BME280;58975;51.978;8.472;2023-08-06T04:41:18;99322.47;;;13.14;100.00
4858;BME280;58975;51.978;8.472;2023-08-06T04:46:14;99321.97;;;13.18;100.00
4858;BME280;58975;51.978;8.472;2023-08-06T04:51:11;99326.16;;;13.29;100.00
4858;BME280;58975;51.978;8.472;2023-08-06T04:56:07;99332.84;;;13.33;100.00
4858;BME280;58975;51.978;8.472;2023-08-06T05:01:04;99322.13;;;13.41;100.00
4858;BME280;58975;51.978;8.472;2023-08-06T05:06:00;99318.97;;;13.46;100.00
4858;BME280;58975;51.978;8.472;2023-08-06T05:10:57;99300.75;;;13.49;100.00
4858;BME280;58975;51.978;8.472;2023-08-06T05:15:54;99291.38;;;13.53;100.00
4858;BME280;58975;51.978;8.472;2023-08-06T05:20:50;99299.88;;;13.65;100.00
4858;BME280;58975;51.978;8.472;2023-08-06T05:25:46;99304.88;;;13.84;100.00
4858;BME280;58975;51.978;8.472;2023-08-06T05:30:43;99293.28;;;14.00;100.00
4858;BME280;58975;51.978;8.472;2023-08-06T05:35:40;99286.88;;;14.17;100.00
4858;BME280;58975;51.978;8.472;2023-08-06T05:40:37;99283.84;;;14.20;100.00
4858;BME280;58975;51.978;8.472;2023-08-06T05:45:34;99279.47;;;14.27;100.00
4858;BME280;58975;51.978;8.472;2023-08-06T05:50:30;99275.38;;;14.47;100.00
4858;BME280;58975;51.978;8.472;2023-08-06T05:55:27;99267.94;;;14.65;100.00
4858;BME280;58975;51.978;8.472;2023-08-06T06:00:24;99255.44;;;14.81;100.00
4858;BME280;58975;51.978;8.472;2023-08-06T06:05:20;99242.06;;;15.18;100.00
4858;BME280;58975;51.978;8.472;2023-08-06T06:10:17;99241.44;;;15.53;100.00
4858;BME280;58975;51.978;8.472;2023-08-06T06:15:13;99222.22;;;15.94;100.00
4858;BME280;58975;51.978;8.472;2023-08-06T06:20:10;99220.81;;;15.98;100.00
4858;BME280;58975;51.978;8.472;2023-08-06T06:25:07;99217.75;;;16.01;100.00
4858;BME280;58975;51.978;8.472;2023-08-06T06:30:03;99218.31;;;16.11;100.00
4858;BME280;58975;51.978;8.472;2023-08-06T06:35:00;99218.09;;;16.13;100.00
4858;BME280;58975;51.978;8.472;2023-08-06T06:39:57;99218.50;;;16.45;100.00
4858;BME280;58975;51.978;8.472;2023-08-06T06:44:53;99209.88;;;16.65;100.00
4858;BME280;58975;51.978;8.472;2023-08-06T06:49:50;99214.09;;;16.74;100.00
4858;BME280;58975;51.978;8.472;2023-08-06T06:54:46;99209.72;;;16.94;100.00
4858;BME280;58975;51.978;8.472;2023-08-06T06:59:43;99205.75;;;17.11;100.00
4858;BME280;58975;51.978;8.472;2023-08-06T07:04:39;99209.09;;;17.13;100.00
4858;BME280;58975;51.978;8.472;2023-08-06T07:09:35;99200.94;;;17.07;100.00
4858;BME280;58975;51.978;8.472;2023-08-06T07:14:32;99202.38;;;17.02;100.00
4858;BME280;58975;51.978;8.472;2023-08-06T07:19:28;99197.88;;;17.59;100.00
4858;BME280;58975;51.978;8.472;2023-08-06T07:24:25;99201.13;;;18.23;100.00
4858;BME280;58975;51.978;8.472;2023-08-06T07:29:21;99198.25;;;18.37;100.00
4858;BME280;58975;51.978;8.472;2023-08-06T07:34:18;99203.41;;;18.26;100.00
4858;BME280;58975;51.978;8.472;2023-08-06T07:39:15;99207.91;;;18.66;100.00
4858;BME280;58975;51.978;8.472;2023-08-06T07:44:13;99210.03;;;18.97;100.00
4858;BME280;58975;51.978;8.472;2023-08-06T07:49:09;99206.31;;;19.11;100.00
4858;BME280;58975;51.978;8.472;2023-08-06T07:54:07;99201.88;;;19.89;100.00
4858;BME280;58975;51.978;8.472;2023-08-06T07:59:04;99197.81;;;19.01;100.00
4858;BME280;58975;51.978;8.472;2023-08-06T08:04:00;99207.53;;;18.28;100.00
4858;BME280;58975;51.978;8.472;2023-08-06T08:08:57;99202.06;;;18.63;100.00
4858;BME280;58975;51.978;8.472;2023-08-06T08:13:53;99195.38;;;18.46;100.00
4858;BME280;58975;51.978;8.472;2023-08-06T08:18:49;99193.31;;;18.48;100.00
4858;BME280;58975;51.978;8.472;2023-08-06T08:23:46;99193.59;;;18.72;100.00
4858;BME280;58975;51.978;8.472;2023-08-06T08:28:43;99190.50;;;18.75;100.00
4858;BME280;58975;51.978;8.472;2023-08-06T08:33:39;99196.91;;;18.68;100.00
4858;BME280;58975;51.978;8.472;2023-08-06T08:38:36;99194.44;;;19.78;100.00
4858;BME280;58975;51.978;8.472;2023-08-06T08:43:32;99190.34;;;20.20;100.00
4858;BME280;58975;51.978;8.472;2023-08-06T08:48:29;99189.34;;;20.14;100.00
4858;BME280;58975;51.978;8.472;2023-08-06T08:53:26;99194.84;;;20.39;100.00
4858;BME280;58975;51.978;8.472;2023-08-06T08:58:23;99181.53;;;21.56;100.00
4858;BME280;58975;51.978;8.472;2023-08-06T09:03:20;99190.47;;;22.18;100.00
4858;BME280;58975;51.978;8.472;2023-08-06T09:08:18;99194.28;;;21.00;100.00
4858;BME280;58975;51.978;8.472;2023-08-06T09:13:16;99194.06;;;19.68;100.00
4858;BME280;58975;51.978;8.472;2023-08-06T09:18:12;99189.69;;;19.54;100.00
4858;BME280;58975;51.978;8.472;2023-08-06T09:23:10;99192.81;;;19.24;100.00
4858;BME280;58975;51.978;8.472;2023-08-06T09:28:06;99196.75;;;19.15;100.00
4858;BME280;58975;51.978;8.472;2023-08-06T09:33:04;99197.41;;;19.50;100.00
4858;BME280;58975;51.978;8.472;2023-08-06T09:38:08;99191.97;;;20.27;100.00
4858;BME280;58975;51.978;8.472;2023-08-06T09:43:07;99189.09;;;20.98;100.00
4858;BME280;58975;51.978;8.472;2023-08-06T09:48:04;99191.16;;;20.34;100.00
4858;BME280;58975;51.978;8.472;2023-08-06T09:53:03;99198.03;;;19.46;100.00
4858;BME280;58975;51.978;8.472;2023-08-06T09:58:01;99196.97;;;19.27;100.00
4858;BME280;58975;51.978;8.472;2023-08-06T10:03:01;99185.56;;;19.05;100.00
4858;BME280;58975;51.978;8.472;2023-08-06T10:07:59;99191.38;;;19.15;100.00
4858;BME280;58975;51.978;8.472;2023-08-06T10:12:57;99170.38;;;18.91;100.00
4858;BME280;58975;51.978;8.472;2023-08-06T10:17:56;99174.72;;;18.79;100.00
4858;BME280;58975;51.978;8.472;2023-08-06T10:23:04;99171.84;;;19.53;100.00
4858;BME280;58975;51.978;8.472;2023-08-06T10:28:11;99167.88;;;20.19;100.00
4858;BME280;58975;51.978;8.472;2023-08-06T10:33:11;99161.88;;;20.62;100.00
4858;BME280;58975;51.978;8.472;2023-08-06T10:38:10;99166.31;;;20.50;100.00
4858;BME280;58975;51.978;8.472;2023-08-06T10:43:26;99161.06;;;21.17;100.00
4858;BME280;58975;51.978;8.472;2023-08-06T10:48:30;99159.03;;;21.06;100.00
4858;BME280;58975;51.978;8.472;2023-08-06T10:53:27;99163.78;;;20.86;100.00
4858;BME280;58975;51.978;8.472;2023-08-06T10:58:34;99159.84;;;21.13;100.00
4858;BME280;58975;51.978;8.472;2023-08-06T11:03:32;99155.16;;;21.27;100.00
4858;BME280;58975;51.978;8.472;2023-08-06T11:08:34;99162.28;;;20.59;100.00
4858;BME280;58975;51.978;8.472;2023-08-06T11:13:30;99156.72;;;20.85;100.00
4858;BME280;58975;51.978;8.472;2023-08-06T11:18:28;99148.13;;;20.63;100.00
4858;BME280;58975;51.978;8.472;2023-08-06T11:23:27;99149.97;;;20.32;100.00
4858;BME280;58975;51.978;8.472;2023-08-06T11:28:24;99151.19;;;19.84;100.00
4858;BME280;58975;51.978;8.472;2023-08-06T11:33:22;99153.88;;;19.91;100.00
4858;BME280;58975;51.978;8.472;2023-08-06T11:38:19;99149.91;;;20.45;100.00
4858;BME280;58975;51.978;8.472;2023-08-06T11:43:15;99147.41;;;20.43;100.00
4858;BME280;58975;51.978;8.472;2023-08-06T11:48:12;99139.16;;;20.25;100.00
4858;BME280;58975;51.978;8.472;2023-08-06T11:53:12;99136.50;;;20.18;100.00
4858;BME280;58975;51.978;8.472;2023-08-06T11:58:10;99129.06;;;20.52;100.00
4858;BME280;58975;51.978;8.472;2023-08-06T12:03:09;99115.97;;;20.80;100.00
4858;BME280;58975;51.978;8.472;2023-08-06T12:08:08;99111.78;;;21.70;100.00
4858;BME280;58975;51.978;8.472;2023-08-06T12:13:05;99110.16;;;22.47;100.00
4858;BME280;58975;51.978;8.472;2023-08-06T12:18:01;99112.31;;;20.93;100.00
4858;BME280;58975;51.978;8.472;2023-08-06T12:22:58;99113.19;;;20.87;100.00
4858;BME280;58975;51.978;8.472;2023-08-06T12:27:54;99106.97;;;20.55;100.00
4858;BME280;58975;51.978;8.472;2023-08-06T12:32:51;99109.69;;;20.17;100.00
4858;BME280;58975;51.978;8.472;2023-08-06T12:37:48;99115.63;;;19.94;100.00
4858;BME280;58975;51.978;8.472;2023-08-06T12:42:44;99114.53;;;19.51;100.00
4858;BME280;58975;51.978;8.472;2023-08-06T12:47:41;99105.56;;;19.37;100.00
4858;BME280;58975;51.978;8.472;2023-08-06T12:52:37;99111.66;;;19.19;100.00
4858;BME280;58975;51.978;8.472;2023-08-06T12:57:34;99112.06;;;19.23;100.00
4858;BME280;58975;51.978;8.472;2023-08-06T13:02:51;99126.59;;;19.22;100.00
4858;BME280;58975;51.978;8.472;2023-08-06T13:07:47;99124.50;;;19.30;100.00
4858;BME280;58975;51.978;8.472;2023-08-06T13:12:44;99129.06;;;18.71;100.00
4858;BME280;58975;51.978;8.472;2023-08-06T13:17:40;99140.50;;;18.99;100.00
4858;BME280;58975;51.978;8.472;2023-08-06T13:22:37;99143.00;;;19.07;100.00
4858;BME280;58975;51.978;8.472;2023-08-06T13:27:33;99169.09;;;18.61;100.00
4858;BME280;58975;51.978;8.472;2023-08-06T13:32:30;99174.94;;;18.10;100.00
4858;BME280;58975;51.978;8.472;2023-08-06T13:37:26;99183.88;;;17.76;100.00
4858;BME280;58975;51.978;8.472;2023-08-06T13:42:23;99181.25;;;17.27;100.00
4858;BME280;58975;51.978;8.472;2023-08-06T13:47:19;99167.41;;;17.02;100.00
4858;BME280;58975;51.978;8.472;2023-08-06T13:52:16;99143.09;;;16.68;100.00
4858;BME280;58975;51.978;8.472;2023-08-06T13:57:17;99153.38;;;16.43;100.00
4858;BME280;58975;51.978;8.472;2023-08-06T14:02:14;99169.38;;;16.51;100.00
4858;BME280;58975;51.978;8.472;2023-08-06T14:07:10;99196.91;;;16.53;100.00
4858;BME280;58975;51.978;8.472;2023-08-06T14:12:07;99223.31;;;15.85;100.00
4858;BME280;58975;51.978;8.472;2023-08-06T14:17:03;99235.69;;;14.51;100.00
4858;BME280;58975;51.978;8.472;2023-08-06T14:22:00;99258.72;;;14.37;100.00
4858;BME280;58975;51.978;8.472;2023-08-06T14:26:57;99260.56;;;14.37;100.00
4858;BME280;58975;51.978;8.472;2023-08-06T14:31:53;99245.81;;;14.33;100.00
4858;BME280;58975;51.978;8.472;2023-08-06T14:36:50;99246.69;;;14.25;100.00
4858;BME280;58975;51.978;8.472;2023-08-06T14:41:46;99256.47;;;14.10;100.00
4858;BME280;58975;51.978;8.472;2023-08-06T14:46:43;99268.97;;;14.17;100.00
4858;BME280;58975;51.978;8.472;2023-08-06T14:51:39;99276.53;;;14.14;100.00
4858;BME280;58975;51.978;8.472;2023-08-06T14:56:36;99282.03;;;14.12;100.00
4858;BME280;58975;51.978;8.472;2023-08-06T15:01:32;99279.75;;;14.48;100.00
4858;BME280;58975;51.978;8.472;2023-08-06T15:06:29;99292.97;;;14.81;100.00
4858;BME280;58975;51.978;8.472;2023-08-06T15:11:25;99303.28;;;14.92;100.00
4858;BME280;58975;51.978;8.472;2023-08-06T15:16:22;99319.31;;;15.00;100.00
4858;BME280;58975;51.978;8.472;2023-08-06T15:21:18;99331.22;;;14.97;100.00
4858;BME280;58975;51.978;8.472;2023-08-06T15:26:15;99333.91;;;14.97;100.00
4858;BME280;58975;51.978;8.472;2023-08-06T15:31:11;99342.13;;;14.96;100.00
4858;BME280;58975;51.978;8.472;2023-08-06T15:36:08;99351.28;;;14.71;100.00
4858;BME280;58975;51.978;8.472;2023-08-06T15:41:04;99345.31;;;14.60;100.00
4858;BME280;58975;51.978;8.472;2023-08-06T15:46:01;99363.38;;;14.66;100.00
4858;BME280;58975;51.978;8.472;2023-08-06T15:50:57;99392.88;;;14.58;100.00
4858;BME280;58975;51.978;8.472;2023-08-06T15:55:54;99428.69;;;14.74;100.00
4858;BME280;58975;51.978;8.472;2023-08-06T16:00:50;99461.03;;;14.64;100.00
4858;BME280;58975;51.978;8.472;2023-08-06T16:05:46;99472.59;;;14.56;100.00
4858;BME280;58975;51.978;8.472;2023-08-06T16:10:43;99496.38;;;14.51;100.00
4858;BME280;58975;51.978;8.472;2023-08-06T16:15:41;99511.78;;;14.57;100.00
4858;BME280;58975;51.978;8.472;2023-08-06T16:20:42;99511.47;;;14.52;100.00
4858;BME280;58975;51.978;8.472;2023-08-06T16:25:39;99516.97;;;14.51;100.00
4858;BME280;58975;51.978;8.472;2023-08-06T16:30:45;99510.94;;;14.57;100.00
4858;BME280;58975;51.978;8.472;2023-08-06T16:35:42;99523.00;;;14.61;100.00
4858;BME280;58975;51.978;8.472;2023-08-06T16:40:38;99521.53;;;14.42;100.00
4858;BME280;58975;51.978;8.472;2023-08-06T16:45:38;99523.69;;;14.14;100.00
4858;BME280;58975;51.978;8.472;2023-08-06T16:50:37;99527.50;;;13.96;100.00
4858;BME280;58975;51.978;8.472;2023-08-06T16:55:33;99506.09;;;13.96;100.00
4858;BME280;58975;51.978;8.472;2023-08-06T17:00:29;99501.09;;;14.25;100.00
4858;BME280;58975;51.978;8.472;2023-08-06T17:05:26;99498.41;;;14.01;100.00
4858;BME280;58975;51.978;8.472;2023-08-06T17:10:22;99514.13;;;13.80;100.00
4858;BME280;58975;51.978;8.472;2023-08-06T17:15:19;99509.78;;;13.79;100.00
4858;BME280;58975;51.978;8.472;2023-08-06T17:20:17;99537.19;;;13.72;100.00
4858;BME280;58975;51.978;8.472;2023-08-06T17:25:13;99563.28;;;13.70;100.00
4858;BME280;58975;51.978;8.472;2023-08-06T17:30:10;99593.22;;;13.74;100.00
4858;BME280;58975;51.978;8.472;2023-08-06T17:35:06;99609.78;;;13.78;100.00
4858;BME280;58975;51.978;8.472;2023-08-06T17:40:03;99620.81;;;13.74;100.00
4858;BME280;58975;51.978;8.472;2023-08-06T17:45:00;99599.06;;;13.78;100.00
4858;BME280;58975;51.978;8.472;2023-08-06T17:49:56;99629.47;;;13.68;100.00
4858;BME280;58975;51.978;8.472;2023-08-06T17:54:52;99626.50;;;13.71;100.00
4858;BME280;58975;51.978;8.472;2023-08-06T17:59:49;99641.50;;;13.64;100.00
4858;BME280;58975;51.978;8.472;2023-08-06T18:04:45;99637.66;;;13.59;100.00
4858;BME280;58975;51.978;8.472;2023-08-06T18:09:42;99656.00;;;13.54;100.00
4858;BME280;58975;51.978;8.472;2023-08-06T18:14:38;99665.56;;;13.56;100.00
4858;BME280;58975;51.978;8.472;2023-08-06T18:19:35;99688.47;;;13.59;100.00
4858;BME280;58975;51.978;8.472;2023-08-06T18:24:32;99697.53;;;13.66;100.00
4858;BME280;58975;51.978;8.472;2023-08-06T18:29:28;99709.75;;;13.68;100.00
4858;BME280;58975;51.978;8.472;2023-08-06T18:34:25;99691.94;;;13.85;100.00
4858;BME280;58975;51.978;8.472;2023-08-06T18:39:21;99686.13;;;13.98;100.00
4858;BME280;58975;51.978;8.472;2023-08-06T18:44:18;99695.28;;;13.87;100.00
4858;BME280;58975;51.978;8.472;2023-08-06T18:49:14;99691.44;;;13.90;100.00
4858;BME280;58975;51.978;8.472;2023-08-06T18:54:11;99693.78;;;13.93;100.00
4858;BME280;58975;51.978;8.472;2023-08-06T18:59:07;99685.09;;;13.91;100.00
4858;BME280;58975;51.978;8.472;2023-08-06T19:04:04;99695.13;;;13.89;100.00
4858;BME280;58975;51.978;8.472;2023-08-06T19:09:00;99708.69;;;13.87;100.00
4858;BME280;58975;51.978;8.472;2023-08-06T19:13:56;99723.91;;;13.87;100.00
4858;BME280;58975;51.978;8.472;2023-08-06T19:18:53;99727.56;;;13.86;100.00
4858;BME280;58975;51.978;8.472;2023-08-06T19:23:49;99735.22;;;13.81;100.00
4858;BME280;58975;51.978;8.472;2023-08-06T19:28:46;99758.47;;;13.80;100.00
4858;BME280;58975;51.978;8.472;2023-08-06T19:33:42;99768.38;;;13.80;100.00
4858;BME280;58975;51.978;8.472;2023-08-06T19:38:39;99775.56;;;13.79;100.00
4858;BME280;58975;51.978;8.472;2023-08-06T19:43:35;99795.13;;;13.80;100.00
4858;BME280;58975;51.978;8.472;2023-08-06T19:48:32;99790.91;;;13.77;100.00
4858;BME280;58975;51.978;8.472;2023-08-06T19:53:33;99803.97;;;13.80;100.00
4858;BME280;58975;51.978;8.472;2023-08-06T19:58:32;99809.16;;;13.82;100.00
4858;BME280;58975;51.978;8.472;2023-08-06T20:03:28;99812.84;;;13.81;100.00
4858;BME280;58975;51.978;8.472;2023-08-06T20:08:28;99825.22;;;13.82;100.00
4858;BME280;58975;51.978;8.472;2023-08-06T20:13:25;99832.28;;;13.83;100.00
4858;BME280;58975;51.978;8.472;2023-08-06T20:18:22;99832.28;;;13.83;100.00
4858;BME280;58975;51.978;8.472;2023-08-06T20:23:22;99837.63;;;13.83;100.00
4858;BME280;58975;51.978;8.472;2023-08-06T20:28:23;99840.44;;;13.81;100.00
4858;BME280;58975;51.978;8.472;2023-08-06T20:33:20;99842.97;;;13.83;100.00
4858;BME280;58975;51.978;8.472;2023-08-06T20:38:17;99855.00;;;13.79;100.00
4858;BME280;58975;51.978;8.472;2023-08-06T20:43:15;99854.28;;;13.77;100.00
4858;BME280;58975;51.978;8.472;2023-08-06T20:48:11;99859.97;;;13.73;100.00
4858;BME280;58975;51.978;8.472;2023-08-06T20:53:07;99865.13;;;13.67;100.00
4858;BME280;58975;51.978;8.472;2023-08-06T20:58:04;99869.47;;;13.68;100.00
4858;BME280;58975;51.978;8.472;2023-08-06T21:03:02;99864.72;;;13.62;100.00
4858;BME280;58975;51.978;8.472;2023-08-06T21:07:58;99877.25;;;13.61;100.00
4858;BME280;58975;51.978;8.472;2023-08-06T21:12:55;99870.22;;;13.60;100.00
4858;BME280;58975;51.978;8.472;2023-08-06T21:17:51;99861.53;;;13.58;100.00
4858;BME280;58975;51.978;8.472;2023-08-06T21:22:48;99858.47;;;13.53;100.00
4858;BME280;58975;51.978;8.472;2023-08-06T21:27:44;99856.13;;;13.50;100.00
4858;BME280;58975;51.978;8.472;2023-08-06T21:32:43;99862.38;;;13.41;100.00
4858;BME280;58975;51.978;8.472;2023-08-06T21:37:40;99852.97;;;13.37;100.00
4858;BME280;58975;51.978;8.472;2023-08-06T21:42:36;99852.63;;;13.32;100.00
4858;BME280;58975;51.978;8.472;2023-08-06T21:47:33;99861.94;;;13.28;100.00
4858;BME280;58975;51.978;8.472;2023-08-06T21:52:29;99862.72;;;13.20;100.00
4858;BME280;58975;51.978;8.472;2023-08-06T21:57:25;99859.34;;;13.18;100.00
4858;BME280;58975;51.978;8.472;2023-08-06T22:02:22;99856.84;;;13.17;100.00
4858;BME280;58975;51.978;8.472;2023-08-06T22:07:18;99853.59;;;13.13;100.00
4858;BME280;58975;51.978;8.472;2023-08-06T22:12:15;99853.06;;;13.10;100.00
4858;BME280;58975;51.978;8.472;2023-08-06T22:17:11;99840.97;;;13.06;100.00
4858;BME280;58975;51.978;8.472;2023-08-06T22:22:08;99841.28;;;13.03;100.00
4858;BME280;58975;51.978;8.472;2023-08-06T22:27:04;99854.13;;;12.99;100.00
4858;BME280;58975;51.978;8.472;2023-08-06T22:32:01;99846.25;;;12.98;100.00
4858;BME280;58975;51.978;8.472;2023-08-06T22:36:57;99844.91;;;12.94;100.00
4858;BME280;58975;51.978;8.472;2023-08-06T22:41:54;99846.84;;;12.92;100.00
4858;BME280;58975;51.978;8.472;2023-08-06T22:46:50;99838.84;;;12.92;100.00
4858;BME280;58975;51.978;8.472;2023-08-06T22:51:47;99830.28;;;12.88;100.00
4858;BME280;58975;51.978;8.472;2023-08-06T22:56:43;99840.97;;;12.88;100.00
4858;BME280;58975;51.978;8.472;2023-08-06T23:01:40;99835.94;;;12.85;100.00
4858;BME280;58975;51.978;8.472;2023-08-06T23:06:37;99843.13;;;12.85;100.00
4858;BME280;58975;51.978;8.472;2023-08-06T23:11:33;99844.09;;;12.84;100.00
4858;BME280;58975;51.978;8.472;2023-08-06T23:16:30;99845.78;;;12.85;100.00
4858;BME280;58975;51.978;8.472;2023-08-06T23:21:26;99836.78;;;12.86;100.00
4858;BME280;58975;51.978;8.472;2023-08-06T23:26:23;99840.59;;;12.83;100.00
4858;BME280;58975;51.978;8.472;2023-08-06T23:31:19;99840.75;;;12.82;100.00
4858;BME280;58975;51.978;8.472;2023-08-06T23:36:16;99843.44;;;12.82;100.00
4858;BME280;58975;51.978;8.472;2023-08-06T23:41:13;99848.78;;;12.82;100.00
4858;BME280;58975;51.978;8.472;2023-08-06T23:46:09;99854.13;;;12.82;100.00
4858;BME280;58975;51.978;8.472;2023-08-06T23:51:05;99838.09;;;12.82;100.00
4858;BME280;58975;51.978;8.472;2023-08-06T23:56:02;99846.09;;;12.82;100.00
